GFA504 OBBI-OMDB
Flight info
| Callsign | GFA504 |
|---|---|
| Flight time | 0h 53m |
| Altitude | 25000 |
| Route | DCT BHR N697 SODAK P559 VUTEB VUTEB4C |
| Aircraft | A320/M-SDE3FGHIRWY/LB1 |
Departure
| Time | 2026-04-22 07:56 |
|---|---|
| Airport | Bahrain International Airport (OBBI) |
Arrival
| Time | 2026-04-22 08:49 |
|---|---|
| Airport | Dubai International Airport (OMDB) |
| Time | Latitude | Longitude | Altitude | Speed | Heading |
|---|---|---|---|---|---|
| 2026-04-22 07:37 | 26.26715 | 50.63210 | 21 ft | 0 kts | 213° |
| 2026-04-22 07:48 | 26.26722 | 50.63214 | 21 ft | 2 kts | 209° |
| 2026-04-22 07:48 | 26.26736 | 50.63223 | 23 ft | 2 kts | 207° |
| 2026-04-22 07:49 | 26.26751 | 50.63232 | 21 ft | 2 kts | 204° |
| 2026-04-22 07:49 | 26.26766 | 50.63239 | 24 ft | 2 kts | 198° |
| 2026-04-22 07:49 | 26.26782 | 50.63244 | 23 ft | 2 kts | 189° |
| 2026-04-22 07:49 | 26.26798 | 50.63246 | 22 ft | 2 kts | 177° |
| 2026-04-22 07:50 | 26.26814 | 50.63243 | 23 ft | 2 kts | 158° |
| 2026-04-22 07:50 | 26.26829 | 50.63235 | 24 ft | 2 kts | 137° |
| 2026-04-22 07:50 | 26.26839 | 50.63223 | 25 ft | 1 kts | 123° |
| 2026-04-22 07:50 | 26.26841 | 50.63219 | 25 ft | 0 kts | 122° |
| 2026-04-22 07:53 | 26.26813 | 50.63269 | 21 ft | 16 kts | 122° |
| 2026-04-22 07:53 | 26.26815 | 50.63377 | 21 ft | 16 kts | 44° |
| 2026-04-22 07:54 | 26.26808 | 50.63481 | 21 ft | 15 kts | 122° |
| 2026-04-22 07:54 | 26.26736 | 50.63602 | 23 ft | 26 kts | 124° |
| 2026-04-22 07:54 | 26.26609 | 50.63824 | 23 ft | 41 kts | 121° |
| 2026-04-22 07:54 | 26.26451 | 50.64103 | 23 ft | 37 kts | 123° |
| 2026-04-22 07:55 | 26.26384 | 50.64234 | 20 ft | 12 kts | 95° |
| 2026-04-22 07:55 | 26.26445 | 50.64303 | 16 ft | 17 kts | 33° |
| 2026-04-22 07:55 | 26.26512 | 50.64345 | 15 ft | 4 kts | 356° |
| 2026-04-22 07:55 | 26.26542 | 50.64303 | 15 ft | 11 kts | 302° |
| 2026-04-22 07:56 | 26.26597 | 50.64204 | 15 ft | 22 kts | 301° |
| 2026-04-22 07:56 | 26.26836 | 50.63801 | 18 ft | 109 kts | 302° |
| 2026-04-22 07:56 | 26.27388 | 50.62838 | 64 ft | 177 kts | 304° |
| 2026-04-22 07:56 | 26.28006 | 50.61713 | 1147 ft | 166 kts | 306° |
| 2026-04-22 07:57 | 26.28693 | 50.60686 | 2017 ft | 169 kts | 323° |
| 2026-04-22 07:57 | 26.29849 | 50.60265 | 2404 ft | 190 kts | 2° |
| 2026-04-22 07:57 | 26.31141 | 50.60859 | 2746 ft | 221 kts | 41° |
| 2026-04-22 07:57 | 26.31862 | 50.62472 | 3138 ft | 255 kts | 81° |
| 2026-04-22 07:58 | 26.31752 | 50.64528 | 3797 ft | 271 kts | 92° |
| 2026-04-22 07:58 | 26.32022 | 50.66592 | 4561 ft | 274 kts | 63° |
| 2026-04-22 07:58 | 26.33218 | 50.68242 | 5213 ft | 277 kts | 38° |
| 2026-04-22 07:58 | 26.34789 | 50.69485 | 5825 ft | 284 kts | 30° |
| 2026-04-22 07:59 | 26.36500 | 50.70661 | 6449 ft | 291 kts | 30° |
| 2026-04-22 07:59 | 26.38224 | 50.71895 | 7062 ft | 296 kts | 32° |
| 2026-04-22 07:59 | 26.39927 | 50.73235 | 7682 ft | 302 kts | 35° |
| 2026-04-22 07:59 | 26.41582 | 50.74659 | 8284 ft | 307 kts | 37° |
| 2026-04-22 08:00 | 26.43249 | 50.76178 | 8880 ft | 312 kts | 38° |
| 2026-04-22 08:00 | 26.44921 | 50.77757 | 9459 ft | 317 kts | 39° |
| 2026-04-22 08:00 | 26.46610 | 50.79380 | 10001 ft | 323 kts | 39° |
| 2026-04-22 08:00 | 26.48359 | 50.81067 | 10189 ft | 340 kts | 39° |
| 2026-04-22 08:01 | 26.50193 | 50.82832 | 10308 ft | 355 kts | 39° |
| 2026-04-22 08:01 | 26.52086 | 50.84653 | 10544 ft | 361 kts | 39° |
| 2026-04-22 08:01 | 26.53979 | 50.86473 | 10865 ft | 364 kts | 39° |
| 2026-04-22 08:01 | 26.55896 | 50.88312 | 11348 ft | 361 kts | 38° |
| 2026-04-22 08:02 | 26.57813 | 50.90151 | 11751 ft | 362 kts | 38° |
| 2026-04-22 08:02 | 26.59709 | 50.91969 | 12116 ft | 365 kts | 38° |
| 2026-04-22 08:02 | 26.61641 | 50.93822 | 12460 ft | 368 kts | 37° |
| 2026-04-22 08:02 | 26.63594 | 50.95694 | 12791 ft | 370 kts | 37° |
| 2026-04-22 08:03 | 26.65555 | 50.97574 | 13118 ft | 373 kts | 37° |
| 2026-04-22 08:03 | 26.67531 | 50.99472 | 13434 ft | 375 kts | 37° |
| 2026-04-22 08:03 | 26.69519 | 51.01381 | 13739 ft | 377 kts | 37° |
| 2026-04-22 08:03 | 26.71478 | 51.03305 | 13999 ft | 381 kts | 41° |
| 2026-04-22 08:04 | 26.73159 | 51.05525 | 14661 ft | 364 kts | 52° |
| 2026-04-22 08:04 | 26.74469 | 51.07921 | 15141 ft | 360 kts | 64° |
| 2026-04-22 08:04 | 26.75334 | 51.10600 | 15641 ft | 377 kts | 78° |
| 2026-04-22 08:04 | 26.75613 | 51.13605 | 15993 ft | 399 kts | 94° |
| 2026-04-22 08:05 | 26.75181 | 51.16691 | 16460 ft | 410 kts | 110° |
| 2026-04-22 08:05 | 26.74210 | 51.19716 | 17246 ft | 415 kts | 114° |
| 2026-04-22 08:05 | 26.73209 | 51.22767 | 18121 ft | 420 kts | 114° |
| 2026-04-22 08:05 | 26.72215 | 51.25861 | 18884 ft | 425 kts | 114° |
| 2026-04-22 08:06 | 26.71228 | 51.28975 | 19609 ft | 431 kts | 114° |
| 2026-04-22 08:06 | 26.70218 | 51.32161 | 20336 ft | 437 kts | 114° |
| 2026-04-22 08:06 | 26.69190 | 51.35387 | 21085 ft | 442 kts | 114° |
| 2026-04-22 08:06 | 26.68143 | 51.38652 | 21806 ft | 448 kts | 114° |
| 2026-04-22 08:07 | 26.67096 | 51.41905 | 22500 ft | 453 kts | 114° |
| 2026-04-22 08:07 | 26.66021 | 51.45243 | 23190 ft | 458 kts | 114° |
| 2026-04-22 08:07 | 26.64933 | 51.48613 | 23798 ft | 462 kts | 114° |
| 2026-04-22 08:07 | 26.63837 | 51.52015 | 24362 ft | 466 kts | 114° |
| 2026-04-22 08:08 | 26.62738 | 51.55435 | 24738 ft | 468 kts | 114° |
| 2026-04-22 08:08 | 26.61638 | 51.58863 | 24862 ft | 469 kts | 114° |
| 2026-04-22 08:08 | 26.60531 | 51.62302 | 24904 ft | 478 kts | 114° |
| 2026-04-22 08:08 | 26.59397 | 51.65810 | 24897 ft | 481 kts | 113° |
| 2026-04-22 08:09 | 26.58264 | 51.69326 | 24896 ft | 481 kts | 113° |
| 2026-04-22 08:09 | 26.57130 | 51.72841 | 24898 ft | 481 kts | 113° |
| 2026-04-22 08:09 | 26.55989 | 51.76369 | 24896 ft | 480 kts | 113° |
| 2026-04-22 08:09 | 26.54852 | 51.79879 | 24895 ft | 480 kts | 113° |
| 2026-04-22 08:10 | 26.53731 | 51.83343 | 24899 ft | 480 kts | 113° |
| 2026-04-22 08:10 | 26.52595 | 51.86852 | 24899 ft | 479 kts | 113° |
| 2026-04-22 08:10 | 26.51459 | 51.90343 | 24897 ft | 479 kts | 113° |
| 2026-04-22 08:10 | 26.50303 | 51.93845 | 24884 ft | 479 kts | 114° |
| 2026-04-22 08:11 | 26.49141 | 51.97327 | 24879 ft | 478 kts | 114° |
| 2026-04-22 08:11 | 26.47970 | 52.00815 | 24877 ft | 478 kts | 114° |
| 2026-04-22 08:11 | 26.46816 | 52.04256 | 24875 ft | 478 kts | 114° |
| 2026-04-22 08:11 | 26.45653 | 52.07737 | 24871 ft | 478 kts | 114° |
| 2026-04-22 08:12 | 26.44477 | 52.11246 | 24889 ft | 489 kts | 114° |
| 2026-04-22 08:12 | 26.43264 | 52.14855 | 24889 ft | 502 kts | 114° |
| 2026-04-22 08:12 | 26.42026 | 52.18541 | 24888 ft | 513 kts | 113° |
| 2026-04-22 08:12 | 26.40766 | 52.22300 | 24885 ft | 520 kts | 113° |
| 2026-04-22 08:13 | 26.39499 | 52.26091 | 24884 ft | 523 kts | 113° |
| 2026-04-22 08:13 | 26.38235 | 52.29896 | 24883 ft | 523 kts | 113° |
| 2026-04-22 08:13 | 26.36985 | 52.33660 | 24883 ft | 524 kts | 113° |
| 2026-04-22 08:13 | 26.35714 | 52.37479 | 24877 ft | 524 kts | 113° |
| 2026-04-22 08:14 | 26.34408 | 52.41276 | 24878 ft | 523 kts | 114° |
| 2026-04-22 08:14 | 26.33022 | 52.45028 | 24875 ft | 523 kts | 116° |
| 2026-04-22 08:14 | 26.31579 | 52.48739 | 24873 ft | 522 kts | 117° |
| 2026-04-22 08:14 | 26.30103 | 52.52436 | 24872 ft | 522 kts | 117° |
| 2026-04-22 08:15 | 26.28624 | 52.56132 | 24871 ft | 522 kts | 117° |
| 2026-04-22 08:15 | 26.27159 | 52.59835 | 24869 ft | 522 kts | 116° |
| 2026-04-22 08:15 | 26.25731 | 52.63501 | 24866 ft | 522 kts | 116° |
| 2026-04-22 08:15 | 26.24301 | 52.67217 | 24865 ft | 522 kts | 116° |
| 2026-04-22 08:16 | 26.22879 | 52.70943 | 24864 ft | 522 kts | 116° |
| 2026-04-22 08:16 | 26.21464 | 52.74666 | 24865 ft | 521 kts | 116° |
| 2026-04-22 08:16 | 26.20054 | 52.78387 | 24864 ft | 521 kts | 116° |
| 2026-04-22 08:16 | 26.18640 | 52.82106 | 24868 ft | 521 kts | 116° |
| 2026-04-22 08:17 | 26.17235 | 52.85774 | 24864 ft | 521 kts | 116° |
| 2026-04-22 08:17 | 26.15806 | 52.89484 | 24866 ft | 520 kts | 116° |
| 2026-04-22 08:17 | 26.14376 | 52.93183 | 24866 ft | 520 kts | 116° |
| 2026-04-22 08:17 | 26.12942 | 52.96891 | 24869 ft | 519 kts | 116° |
| 2026-04-22 08:18 | 26.11516 | 53.00583 | 24864 ft | 518 kts | 116° |
| 2026-04-22 08:18 | 26.10110 | 53.04223 | 24857 ft | 518 kts | 116° |
| 2026-04-22 08:18 | 26.08706 | 53.07913 | 24851 ft | 518 kts | 115° |
| 2026-04-22 08:18 | 26.07333 | 53.11620 | 24852 ft | 518 kts | 115° |
| 2026-04-22 08:19 | 26.05977 | 53.15349 | 24847 ft | 518 kts | 115° |
| 2026-04-22 08:19 | 26.04632 | 53.19071 | 24846 ft | 518 kts | 115° |
| 2026-04-22 08:19 | 26.03299 | 53.22752 | 24844 ft | 518 kts | 115° |
| 2026-04-22 08:19 | 26.01942 | 53.26475 | 24845 ft | 519 kts | 115° |
| 2026-04-22 08:20 | 26.00575 | 53.30191 | 24848 ft | 519 kts | 115° |
| 2026-04-22 08:20 | 25.99202 | 53.33901 | 24843 ft | 519 kts | 115° |
| 2026-04-22 08:20 | 25.97824 | 53.37617 | 24846 ft | 519 kts | 115° |
| 2026-04-22 08:20 | 25.96448 | 53.41329 | 24846 ft | 519 kts | 115° |
| 2026-04-22 08:21 | 25.95091 | 53.44989 | 24849 ft | 518 kts | 115° |
| 2026-04-22 08:21 | 25.93717 | 53.48695 | 24846 ft | 518 kts | 115° |
| 2026-04-22 08:21 | 25.92358 | 53.52416 | 24847 ft | 518 kts | 114° |
| 2026-04-22 08:21 | 25.91047 | 53.56147 | 24848 ft | 518 kts | 114° |
| 2026-04-22 08:22 | 25.89770 | 53.59891 | 24846 ft | 518 kts | 113° |
| 2026-04-22 08:22 | 25.88505 | 53.63645 | 24842 ft | 517 kts | 113° |
| 2026-04-22 08:22 | 25.87241 | 53.67390 | 24841 ft | 517 kts | 113° |
| 2026-04-22 08:22 | 25.85983 | 53.71085 | 24843 ft | 517 kts | 113° |
| 2026-04-22 08:23 | 25.84698 | 53.74814 | 24843 ft | 517 kts | 114° |
| 2026-04-22 08:23 | 25.83404 | 53.78537 | 24846 ft | 516 kts | 114° |
| 2026-04-22 08:23 | 25.82103 | 53.82258 | 24849 ft | 516 kts | 114° |
| 2026-04-22 08:23 | 25.80802 | 53.85975 | 24837 ft | 516 kts | 114° |
| 2026-04-22 08:24 | 25.79506 | 53.89696 | 24838 ft | 516 kts | 114° |
| 2026-04-22 08:24 | 25.78215 | 53.93409 | 24839 ft | 516 kts | 114° |
| 2026-04-22 08:24 | 25.76921 | 53.97126 | 24839 ft | 516 kts | 114° |
| 2026-04-22 08:24 | 25.75628 | 54.00841 | 24844 ft | 516 kts | 113° |
| 2026-04-22 08:25 | 25.74389 | 54.04535 | 24842 ft | 517 kts | 112° |
| 2026-04-22 08:25 | 25.73200 | 54.08306 | 24836 ft | 517 kts | 111° |
| 2026-04-22 08:25 | 25.72059 | 54.12096 | 24836 ft | 517 kts | 110° |
| 2026-04-22 08:25 | 25.70941 | 54.15885 | 24831 ft | 517 kts | 110° |
| 2026-04-22 08:26 | 25.69817 | 54.19684 | 24788 ft | 518 kts | 110° |
| 2026-04-22 08:26 | 25.68688 | 54.23448 | 24292 ft | 506 kts | 111° |
| 2026-04-22 08:26 | 25.67953 | 54.25872 | 23610 ft | 499 kts | 111° |
| 2026-04-22 08:26 | 25.66484 | 54.30633 | 22247 ft | 485 kts | 111° |
| 2026-04-22 08:27 | 25.65388 | 54.34144 | 21255 ft | 478 kts | 111° |
| 2026-04-22 08:27 | 25.64655 | 54.36487 | 20604 ft | 474 kts | 111° |
| 2026-04-22 08:27 | 25.63585 | 54.39915 | 19696 ft | 468 kts | 110° |
| 2026-04-22 08:27 | 25.62541 | 54.43258 | 18831 ft | 462 kts | 110° |
| 2026-04-22 08:28 | 25.61499 | 54.46605 | 17885 ft | 451 kts | 110° |
| 2026-04-22 08:28 | 25.60483 | 54.49875 | 16453 ft | 446 kts | 110° |
| 2026-04-22 08:28 | 25.59483 | 54.53096 | 15355 ft | 437 kts | 110° |
| 2026-04-22 08:28 | 25.58566 | 54.56252 | 14621 ft | 421 kts | 105° |
| 2026-04-22 08:29 | 25.58128 | 54.59444 | 13890 ft | 418 kts | 94° |
| 2026-04-22 08:29 | 25.58248 | 54.62661 | 13069 ft | 417 kts | 83° |
| 2026-04-22 08:29 | 25.58658 | 54.65743 | 12789 ft | 399 kts | 82° |
| 2026-04-22 08:29 | 25.59043 | 54.68711 | 12663 ft | 379 kts | 83° |
| 2026-04-22 08:30 | 25.59399 | 54.71537 | 12538 ft | 361 kts | 83° |
| 2026-04-22 08:30 | 25.59733 | 54.74238 | 12414 ft | 346 kts | 83° |
| 2026-04-22 08:30 | 25.60054 | 54.76837 | 12236 ft | 338 kts | 83° |
| 2026-04-22 08:30 | 25.60374 | 54.79428 | 12038 ft | 338 kts | 83° |
| 2026-04-22 08:31 | 25.60691 | 54.81971 | 11985 ft | 337 kts | 83° |
| 2026-04-22 08:31 | 25.60989 | 54.84551 | 11994 ft | 337 kts | 88° |
| 2026-04-22 08:31 | 25.60028 | 54.89523 | 11995 ft | 331 kts | 116° |
| 2026-04-22 08:32 | 25.59113 | 54.91862 | 11997 ft | 331 kts | 116° |
| 2026-04-22 08:32 | 25.58163 | 54.94282 | 12000 ft | 361 kts | 116° |
| 2026-04-22 08:32 | 25.57102 | 54.96965 | 11996 ft | 397 kts | 116° |
| 2026-04-22 08:32 | 25.55972 | 54.99833 | 11995 ft | 410 kts | 116° |
| 2026-04-22 08:33 | 25.54846 | 55.02711 | 11993 ft | 412 kts | 116° |
| 2026-04-22 08:33 | 25.53562 | 55.05554 | 11996 ft | 412 kts | 120° |
| 2026-04-22 08:33 | 25.52187 | 55.08337 | 11991 ft | 411 kts | 122° |
| 2026-04-22 08:33 | 25.50776 | 55.11049 | 11612 ft | 400 kts | 123° |
| 2026-04-22 08:34 | 25.49402 | 55.13621 | 11463 ft | 376 kts | 123° |
| 2026-04-22 08:34 | 25.48101 | 55.16047 | 11357 ft | 355 kts | 123° |
| 2026-04-22 08:34 | 25.46881 | 55.18340 | 11225 ft | 337 kts | 123° |
| 2026-04-22 08:34 | 25.45627 | 55.20404 | 11106 ft | 318 kts | 134° |
| 2026-04-22 08:35 | 25.44174 | 55.22183 | 10985 ft | 304 kts | 135° |
| 2026-04-22 08:35 | 25.42786 | 55.23887 | 10869 ft | 292 kts | 135° |
| 2026-04-22 08:35 | 25.41453 | 55.25530 | 10719 ft | 282 kts | 135° |
| 2026-04-22 08:35 | 25.40152 | 55.27131 | 10447 ft | 278 kts | 136° |
| 2026-04-22 08:36 | 25.38867 | 55.28711 | 10136 ft | 275 kts | 136° |
| 2026-04-22 08:36 | 25.37590 | 55.30279 | 9884 ft | 270 kts | 136° |
| 2026-04-22 08:36 | 25.36361 | 55.31790 | 9765 ft | 259 kts | 136° |
| 2026-04-22 08:36 | 25.35270 | 55.33341 | 9647 ft | 252 kts | 126° |
| 2026-04-22 08:37 | 25.34374 | 55.34963 | 9522 ft | 242 kts | 126° |
| 2026-04-22 08:37 | 25.33524 | 55.36500 | 9400 ft | 234 kts | 126° |
| 2026-04-22 08:37 | 25.32685 | 55.38012 | 9277 ft | 227 kts | 126° |
| 2026-04-22 08:37 | 25.31875 | 55.39468 | 9120 ft | 217 kts | 126° |
| 2026-04-22 08:38 | 25.31093 | 55.40871 | 8853 ft | 213 kts | 126° |
| 2026-04-22 08:38 | 25.30319 | 55.42257 | 8517 ft | 210 kts | 126° |
| 2026-04-22 08:38 | 25.29581 | 55.43580 | 8341 ft | 199 kts | 127° |
| 2026-04-22 08:38 | 25.28837 | 55.44908 | 7799 ft | 209 kts | 127° |
| 2026-04-22 08:39 | 25.28061 | 55.46290 | 7352 ft | 212 kts | 127° |
| 2026-04-22 08:39 | 25.27285 | 55.47677 | 6978 ft | 211 kts | 127° |
| 2026-04-22 08:39 | 25.26515 | 55.49058 | 6632 ft | 210 kts | 127° |
| 2026-04-22 08:39 | 25.25766 | 55.50406 | 6277 ft | 207 kts | 126° |
| 2026-04-22 08:40 | 25.25017 | 55.51755 | 5879 ft | 205 kts | 127° |
| 2026-04-22 08:40 | 25.24274 | 55.53090 | 5521 ft | 203 kts | 127° |
| 2026-04-22 08:40 | 25.23535 | 55.54418 | 5139 ft | 201 kts | 127° |
| 2026-04-22 08:40 | 25.22804 | 55.55731 | 4782 ft | 199 kts | 126° |
| 2026-04-22 08:41 | 25.22079 | 55.57032 | 4412 ft | 199 kts | 126° |
| 2026-04-22 08:41 | 25.21367 | 55.58314 | 4060 ft | 197 kts | 126° |
| 2026-04-22 08:41 | 25.20639 | 55.59620 | 3609 ft | 201 kts | 124° |
| 2026-04-22 08:41 | 25.19904 | 55.60938 | 3185 ft | 202 kts | 124° |
| 2026-04-22 08:42 | 25.19165 | 55.62243 | 2931 ft | 195 kts | 128° |
| 2026-04-22 08:42 | 25.18205 | 55.63176 | 2794 ft | 176 kts | 155° |
| 2026-04-22 08:42 | 25.17065 | 55.63487 | 2660 ft | 170 kts | 180° |
| 2026-04-22 08:42 | 25.15909 | 55.63195 | 2606 ft | 171 kts | 206° |
| 2026-04-22 08:43 | 25.15048 | 55.62404 | 2615 ft | 153 kts | 230° |
| 2026-04-22 08:43 | 25.14586 | 55.61311 | 2595 ft | 168 kts | 255° |
| 2026-04-22 08:43 | 25.14466 | 55.60025 | 2586 ft | 173 kts | 262° |
| 2026-04-22 08:43 | 25.14360 | 55.58700 | 2580 ft | 175 kts | 262° |
| 2026-04-22 08:44 | 25.14268 | 55.57366 | 2573 ft | 176 kts | 269° |
| 2026-04-22 08:44 | 25.14513 | 55.56051 | 2569 ft | 178 kts | 293° |
| 2026-04-22 08:44 | 25.15094 | 55.54846 | 2583 ft | 178 kts | 298° |
| 2026-04-22 08:44 | 25.15724 | 55.53664 | 2577 ft | 177 kts | 300° |
| 2026-04-22 08:45 | 25.16341 | 55.52543 | 2572 ft | 167 kts | 301° |
| 2026-04-22 08:45 | 25.16935 | 55.51469 | 2405 ft | 161 kts | 300° |
| 2026-04-22 08:45 | 25.17494 | 55.50465 | 2239 ft | 146 kts | 301° |
| 2026-04-22 08:45 | 25.18003 | 55.49548 | 2070 ft | 135 kts | 301° |
| 2026-04-22 08:46 | 25.18485 | 55.48681 | 1900 ft | 131 kts | 302° |
| 2026-04-22 08:46 | 25.18960 | 55.47827 | 1729 ft | 129 kts | 302° |
| 2026-04-22 08:46 | 25.19424 | 55.46992 | 1576 ft | 127 kts | 302° |
| 2026-04-22 08:46 | 25.19879 | 55.46174 | 1414 ft | 126 kts | 303° |
| 2026-04-22 08:47 | 25.20338 | 55.45347 | 1274 ft | 126 kts | 303° |
| 2026-04-22 08:47 | 25.20797 | 55.44521 | 1097 ft | 125 kts | 303° |
| 2026-04-22 08:47 | 25.21254 | 55.43698 | 944 ft | 125 kts | 303° |
| 2026-04-22 08:47 | 25.21710 | 55.42877 | 788 ft | 125 kts | 305° |
| 2026-04-22 08:48 | 25.22161 | 55.42066 | 621 ft | 122 kts | 306° |
| 2026-04-22 08:48 | 25.22605 | 55.41268 | 466 ft | 123 kts | 302° |
| 2026-04-22 08:48 | 25.23055 | 55.40445 | 324 ft | 128 kts | 305° |
| 2026-04-22 08:48 | 25.23517 | 55.39624 | 134 ft | 124 kts | 306° |
| 2026-04-22 08:49 | 25.23951 | 55.38842 | 27 ft | 107 kts | 302° |
| 2026-04-22 08:49 | 25.24286 | 55.38239 | 13 ft | 80 kts | 303° |
| 2026-04-22 08:49 | 25.24549 | 55.37769 | 12 ft | 64 kts | 300° |
| 2026-04-22 08:49 | 25.24745 | 55.37400 | 11 ft | 46 kts | 292° |
| 2026-04-22 08:50 | 25.24787 | 55.37099 | 10 ft | 38 kts | 270° |
| 2026-04-22 08:50 | 25.24835 | 55.36881 | 10 ft | 30 kts | 296° |
| 2026-04-22 08:50 | 25.24898 | 55.36651 | 10 ft | 33 kts | 298° |
| 2026-04-22 08:50 | 25.25023 | 55.36426 | 10 ft | 35 kts | 302° |
| 2026-04-22 08:51 | 25.25157 | 55.36188 | 11 ft | 37 kts | 302° |
| 2026-04-22 08:51 | 25.25297 | 55.35943 | 10 ft | 39 kts | 301° |
| 2026-04-22 08:51 | 25.25437 | 55.35683 | 10 ft | 40 kts | 301° |
| 2026-04-22 08:51 | 25.25581 | 55.35419 | 10 ft | 41 kts | 300° |
| 2026-04-22 08:52 | 25.25659 | 55.35275 | 12 ft | 13 kts | 301° |
| 2026-04-22 08:52 | 25.25712 | 55.35179 | 10 ft | 9 kts | 301° |
| 2026-04-22 08:52 | 25.25748 | 55.35114 | 12 ft | 10 kts | 301° |
| 2026-04-22 08:52 | 25.25755 | 55.35102 | 10 ft | 0 kts | 301° |
| 2026-04-22 08:53 | 25.25767 | 55.35078 | 11 ft | 8 kts | 297° |
| 2026-04-22 08:53 | 25.25755 | 55.35005 | 10 ft | 14 kts | 223° |
| 2026-04-22 08:53 | 25.25753 | 55.34915 | 11 ft | 13 kts | 299° |
| 2026-04-22 08:53 | 25.25798 | 55.34833 | 10 ft | 11 kts | 301° |
| 2026-04-22 08:54 | 25.25807 | 55.34807 | 11 ft | 3 kts | 261° |
| 2026-04-22 08:54 | 25.25793 | 55.34794 | 10 ft | 3 kts | 210° |
| 2026-04-22 08:54 | 25.25774 | 55.34782 | 10 ft | 4 kts | 211° |
| 2026-04-22 08:54 | 25.25751 | 55.34766 | 10 ft | 4 kts | 211° |
| 2026-04-22 08:55 | 25.25733 | 55.34755 | 12 ft | 0 kts | 210° |
| 2026-04-22 08:55 | 25.25727 | 55.34751 | 11 ft | 0 kts | 210° |
| 2026-04-22 09:25 | 25.25734 | 55.34756 | 11 ft | 2 kts | 207° |
| 2026-04-22 09:25 | 25.25749 | 55.34764 | 13 ft | 2 kts | 208° |
| 2026-04-22 09:25 | 25.25764 | 55.34773 | 11 ft | 2 kts | 206° |
| 2026-04-22 09:26 | 25.25778 | 55.34780 | 10 ft | 2 kts | 204° |
| 2026-04-22 09:26 | 25.25793 | 55.34788 | 10 ft | 2 kts | 202° |
| 2026-04-22 09:26 | 25.25809 | 55.34794 | 11 ft | 2 kts | 199° |
| 2026-04-22 09:26 | 25.25825 | 55.34800 | 11 ft | 2 kts | 195° |
| 2026-04-22 09:27 | 25.25840 | 55.34804 | 13 ft | 2 kts | 191° |
| 2026-04-22 09:27 | 25.25857 | 55.34807 | 10 ft | 2 kts | 185° |